Time;durP1;ratioP1;P1;durP2;ratioP2;P2;SDS_P1;SDS_P2;PMS_P1;PMS_P2;Temp;Humidity;BMP_temperature;BMP_pressure;BME280_temperature;BME280_humidity;BME280_pressure;Samples;Min_cycle;Max_cycle;Signal;HPM_P1;HPM_P2
2021/08/30 00:00:14;;;;;;;2.25;2.08;;;;;;;16.70;75.23;100907.72;692206;28;21545;-69
2021/08/30 00:00:35;;;;;;;2.08;1.92;;;;;;;16.72;75.39;100910.25;692173;28;21520;-67
2021/08/30 00:00:57;;;;;;;2.17;1.98;;;;;;;16.72;75.17;100904.78;692996;28;23458;-68
2021/08/30 00:01:18;;;;;;;2.20;2.10;;;;;;;16.72;75.19;100902.06;691936;28;43146;-68
2021/08/30 00:01:39;;;;;;;2.03;1.92;;;;;;;16.71;75.14;100908.59;693185;28;15209;-68
2021/08/30 00:02:00;;;;;;;2.30;2.10;;;;;;;16.72;75.48;100907.50;693129;28;21531;-68
2021/08/30 00:02:24;;;;;;;2.33;2.13;;;;;;;16.70;75.21;100901.44;692145;28;22392;-68
2021/08/30 00:02:45;;;;;;;2.20;2.10;;;;;;;16.73;75.29;100911.94;690170;28;90360;-68
2021/08/30 00:03:06;;;;;;;2.10;2.00;;;;;;;16.72;75.26;100910.25;692617;28;22404;-68
2021/08/30 00:03:28;;;;;;;2.10;2.00;;;;;;;16.72;75.28;100916.56;692873;28;22368;-68
2021/08/30 00:03:50;;;;;;;2.35;2.13;;;;;;;16.70;75.24;100906.91;691987;28;46325;-69
2021/08/30 00:04:11;;;;;;;2.83;2.17;;;;;;;16.72;75.39;100904.78;691549;28;44403;-69
2021/08/30 00:04:32;;;;;;;2.70;2.20;;;;;;;16.72;75.44;100904.78;695131;28;22350;-68
2021/08/30 00:04:53;;;;;;;3.08;2.50;;;;;;;16.70;75.31;100910.47;694761;28;24327;-68
2021/08/30 00:05:15;;;;;;;2.38;2.20;;;;;;;16.72;75.26;100915.69;695233;28;22425;-68
2021/08/30 00:05:36;;;;;;;2.10;2.00;;;;;;;16.71;75.30;100900.41;694007;28;46285;-68
2021/08/30 00:05:57;;;;;;;2.20;2.10;;;;;;;16.72;75.45;100912.97;694889;28;22557;-68
2021/08/30 00:06:18;;;;;;;2.20;2.00;;;;;;;16.72;75.36;100915.69;692887;28;22798;-68
2021/08/30 00:06:41;;;;;;;2.22;2.13;;;;;;;16.73;75.37;100917.38;692999;28;22426;-67
2021/08/30 00:07:02;;;;;;;2.38;2.17;;;;;;;16.73;75.23;100918.22;691126;28;69425;-68
2021/08/30 00:07:24;;;;;;;2.25;2.10;;;;;;;16.74;75.31;100919.06;691935;28;21580;-68
2021/08/30 00:07:46;;;;;;;2.25;2.15;;;;;;;16.73;75.32;100909.19;692422;28;23476;-68
2021/08/30 00:08:07;;;;;;;2.47;2.30;;;;;;;16.72;75.33;100911.09;692103;28;46343;-69
2021/08/30 00:08:28;;;;;;;2.30;2.10;;;;;;;16.73;75.32;100906.47;692600;28;22653;-68
2021/08/30 00:08:49;;;;;;;2.55;2.35;;;;;;;16.72;75.34;100905.66;693149;28;22414;-69
2021/08/30 00:09:12;;;;;;;2.50;2.30;;;;;;;16.73;75.27;100909.19;691006;28;66497;-68
2021/08/30 00:09:33;;;;;;;2.13;2.03;;;;;;;16.72;75.24;100902.06;691026;28;69435;-69
2021/08/30 00:09:54;;;;;;;2.58;2.10;;;;;;;16.72;75.45;100913.81;693040;28;23472;-69
2021/08/30 00:10:15;;;;;;;3.90;2.30;;;;;;;16.73;75.29;100903.75;693760;28;935;-68
2021/08/30 00:10:38;;;;;;;2.45;2.03;;;;;;;16.72;75.35;100915.69;692623;28;21421;-68
2021/08/30 00:10:59;;;;;;;2.35;2.15;;;;;;;16.72;75.33;100913.81;692222;28;19552;-69
2021/08/30 00:11:20;;;;;;;2.38;2.17;;;;;;;16.73;75.41;100911.94;692484;28;22384;-69
2021/08/30 00:11:41;;;;;;;3.35;2.50;;;;;;;16.73;75.28;100911.94;692130;28;22366;-69
2021/08/30 00:12:03;;;;;;;4.85;2.30;;;;;;;16.74;75.41;100913.63;692227;28;22419;-68
2021/08/30 00:12:25;;;;;;;2.80;2.40;;;;;;;16.74;75.46;100910.88;690866;28;67518;-68
2021/08/30 00:12:46;;;;;;;2.38;2.17;;;;;;;16.73;75.35;100917.38;693040;28;22231;-67
2021/08/30 00:13:07;;;;;;;2.28;2.17;;;;;;;16.73;75.56;100911.94;693064;28;21305;-69
2021/08/30 00:13:29;;;;;;;2.30;2.20;;;;;;;16.73;75.43;100910.03;693085;28;22407;-68
2021/08/30 00:13:51;;;;;;;2.30;2.20;;;;;;;16.73;75.31;100909.19;691348;28;67520;-68
2021/08/30 00:14:12;;;;;;;2.40;2.30;;;;;;;16.72;75.42;100904.78;692765;28;23457;-68
2021/08/30 00:14:33;;;;;;;2.40;2.30;;;;;;;16.74;75.33;100917.16;693824;28;877;-68
2021/08/30 00:14:55;;;;;;;2.33;2.17;;;;;;;16.73;75.52;100915.47;692249;28;44312;-68
2021/08/30 00:15:17;;;;;;;2.53;2.30;;;;;;;16.74;75.43;100913.63;693099;28;21573;-70
2021/08/30 00:15:38;;;;;;;2.25;2.05;;;;;;;16.75;75.39;100918.00;691411;28;47051;-69
2021/08/30 00:15:59;;;;;;;2.40;2.20;;;;;;;16.75;75.45;100912.53;692831;28;22842;-68
2021/08/30 00:16:20;;;;;;;2.20;2.10;;;;;;;16.75;75.32;100909.81;692808;28;22390;-68
2021/08/30 00:16:42;;;;;;;2.15;2.05;;;;;;;16.75;75.40;100910.69;692302;28;21550;-69
2021/08/30 00:17:03;;;;;;;1.90;1.80;;;;;;;16.76;75.30;100914.22;691975;28;46375;-69
2021/08/30 00:17:26;;;;;;;2.10;2.00;;;;;;;16.76;75.12;100911.50;692679;28;23430;-69
2021/08/30 00:17:47;;;;;;;2.10;2.00;;;;;;;16.76;75.20;100912.34;690732;28;69432;-69
2021/08/30 00:18:09;;;;;;;2.15;2.05;;;;;;;16.75;75.33;100918.00;692596;28;22265;-68
2021/08/30 00:18:31;;;;;;;2.35;2.17;;;;;;;16.75;75.13;100915.28;692056;28;44540;-68
2021/08/30 00:18:52;;;;;;;2.50;2.30;;;;;;;16.75;75.21;100912.53;691823;28;45275;-68
2021/08/30 00:19:16;;;;;;;2.30;2.20;;;;;;;16.75;75.23;100920.72;691261;28;69640;-69
2021/08/30 00:19:37;;;;;;;2.20;2.10;;;;;;;16.74;75.15;100905.44;692170;28;46301;-68
2021/08/30 00:19:58;;;;;;;2.50;2.30;;;;;;;16.74;75.06;100919.91;692576;28;21321;-68
2021/08/30 00:20:21;;;;;;;2.30;2.10;;;;;;;16.72;75.17;100916.56;692262;28;20832;-69
2021/08/30 00:20:43;;;;;;;2.00;1.90;;;;;;;16.73;75.15;100912.75;690552;28;69424;-69
2021/08/30 00:21:04;;;;;;;2.20;2.00;;;;;;;16.71;75.12;100909.41;688087;28;44396;-68
2021/08/30 00:21:25;;;;;;;2.10;2.00;;;;;;;16.70;75.25;100902.28;690029;28;23546;-67
2021/08/30 00:21:46;;;;;;;2.10;2.00;;;;;;;16.71;75.17;100912.16;690041;28;24186;-69
2021/08/30 00:22:08;;;;;;;2.10;2.00;;;;;;;16.72;75.26;100918.44;690640;28;22376;-69
2021/08/30 00:22:30;;;;;;;2.83;2.13;;;;;;;16.71;75.38;100920.31;691738;28;46071;-69
2021/08/30 00:22:51;;;;;;;3.25;2.33;;;;;;;16.71;75.25;100916.78;692516;28;21553;-68
2021/08/30 00:23:12;;;;;;;2.35;2.17;;;;;;;16.70;75.31;100912.34;692891;28;21313;-66
2021/08/30 00:23:34;;;;;;;3.10;2.15;;;;;;;16.70;75.31;100915.09;693023;28;23447;-67
2021/08/30 00:23:55;;;;;;;2.08;1.95;;;;;;;16.70;75.35;100915.91;691774;28;45113;-69
2021/08/30 00:24:22;;;;;;;2.40;2.30;;;;;;;16.70;75.31;100909.63;692100;28;44173;-67
2021/08/30 00:24:43;;;;;;;2.20;2.10;;;;;;;16.68;75.33;100907.13;689066;28;137662;-69
2021/08/30 00:25:05;;;;;;;2.38;2.17;;;;;;;16.68;75.01;100914.47;692629;28;22398;-69
2021/08/30 00:25:26;;;;;;;2.10;2.00;;;;;;;16.72;75.25;100921.16;690916;28;69308;-68
2021/08/30 00:25:47;;;;;;;2.10;2.00;;;;;;;16.70;75.11;100907.72;692127;28;21564;-68
2021/08/30 00:26:09;;;;;;;2.33;2.13;;;;;;;16.68;75.18;100901.66;692743;28;22394;-69
2021/08/30 00:26:30;;;;;;;1.90;1.80;;;;;;;16.70;75.22;100912.34;691945;28;44387;-69
2021/08/30 00:26:53;;;;;;;2.08;1.98;;;;;;;16.70;75.18;100920.53;693032;28;22343;-69
2021/08/30 00:27:14;;;;;;;1.98;1.88;;;;;;;16.69;75.23;100913.41;690524;28;69578;-68
2021/08/30 00:27:36;;;;;;;1.95;1.85;;;;;;;16.69;75.12;100911.53;692511;28;23590;-69
2021/08/30 00:27:57;;;;;;;2.35;1.98;;;;;;;16.69;75.31;100911.53;691475;28;44400;-69
2021/08/30 00:28:18;;;;;;;2.33;2.13;;;;;;;16.70;75.17;100909.63;692925;28;23473;-68
2021/08/30 00:28:40;;;;;;;2.28;2.10;;;;;;;16.69;75.48;100908.81;692961;28;22465;-69
2021/08/30 00:29:02;;;;;;;2.00;1.90;;;;;;;16.69;75.30;100911.53;691994;28;22409;-69
2021/08/30 00:29:25;;;;;;;2.00;1.90;;;;;;;16.70;75.30;100912.34;692062;28;46938;-68
2021/08/30 00:29:46;;;;;;;2.10;2.00;;;;;;;16.69;75.19;100903.34;690876;28;69181;-68
2021/08/30 00:30:09;;;;;;;2.00;1.90;;;;;;;16.70;75.32;100912.34;692304;28;21304;-69
2021/08/30 00:30:31;;;;;;;1.90;1.80;;;;;;;16.71;75.28;100905.88;690984;28;68443;-69
2021/08/30 00:30:52;;;;;;;2.30;2.10;;;;;;;16.69;75.20;100910.66;691682;28;45137;-66
2021/08/30 00:31:13;;;;;;;2.17;2.08;;;;;;;16.69;75.32;100905.22;692981;28;22384;-68
2021/08/30 00:31:34;;;;;;;2.20;2.03;;;;;;;16.69;75.34;100907.94;692802;28;23458;-68
2021/08/30 00:31:56;;;;;;;2.45;2.25;;;;;;;16.70;75.22;100904.16;692971;28;22435;-69
2021/08/30 00:32:18;;;;;;;2.13;1.98;;;;;;;16.69;75.25;100908.81;691536;28;44361;-69
2021/08/30 00:32:41;;;;;;;2.25;2.10;;;;;;;16.69;75.28;100908.81;691542;28;46731;-68
2021/08/30 00:33:02;;;;;;;2.58;2.38;;;;;;;16.69;75.12;100911.53;691247;28;69352;-69
2021/08/30 00:33:23;;;;;;;2.05;1.95;;;;;;;16.69;75.33;100919.72;692976;28;23717;-68
2021/08/30 00:33:45;;;;;;;1.95;1.85;;;;;;;16.68;75.23;100900.84;692807;28;23860;-69
2021/08/30 00:34:06;;;;;;;2.50;2.30;;;;;;;16.70;75.32;100913.19;691090;28;45274;-68
2021/08/30 00:34:27;;;;;;;3.28;2.20;;;;;;;16.70;75.18;100912.34;692313;28;22253;-67
2021/08/30 00:34:49;;;;;;;2.58;1.90;;;;;;;16.69;75.13;100916.13;693039;28;22217;-67
2021/08/30 00:35:11;;;;;;;2.30;2.10;;;;;;;16.69;75.28;100911.53;692073;28;45220;-69
2021/08/30 00:35:32;;;;;;;2.45;2.33;;;;;;;16.69;75.13;100907.94;691931;28;47157;-69
2021/08/30 00:35:53;;;;;;;2.40;2.20;;;;;;;16.71;75.24;100920.31;692899;28;22418;-69
2021/08/30 00:36:15;;;;;;;2.75;2.15;;;;;;;16.71;75.22;100911.31;692812;28;22395;-69
2021/08/30 00:36:36;;;;;;;2.17;2.00;;;;;;;16.71;75.16;100911.31;691486;28;45257;-69
2021/08/30 00:36:57;;;;;;;2.65;2.45;;;;;;;16.70;75.18;100907.72;692786;28;22369;-69
2021/08/30 00:37:18;;;;;;;2.72;2.20;;;;;;;16.71;75.15;100914.03;692036;28;22450;-69
2021/08/30 00:37:40;;;;;;;2.20;2.00;;;;;;;16.71;75.25;100914.03;692073;28;22396;-68
2021/08/30 00:38:01;;;;;;;2.35;2.15;;;;;;;16.70;75.19;100920.53;691958;28;46327;-69
2021/08/30 00:38:22;;;;;;;2.60;2.40;;;;;;;16.69;75.20;100899.75;693496;28;9362;-68
2021/08/30 00:38:43;;;;;;;2.60;2.40;;;;;;;16.68;75.06;100907.13;692895;28;24346;-69
2021/08/30 00:39:05;;;;;;;2.40;2.20;;;;;;;16.70;75.17;100915.91;692075;28;23402;-67
2021/08/30 00:39:29;;;;;;;2.42;2.22;;;;;;;16.70;75.07;100913.19;691791;28;44399;-67
2021/08/30 00:39:50;;;;;;;2.63;2.30;;;;;;;16.70;75.27;100910.47;691147;28;67504;-69
2021/08/30 00:40:13;;;;;;;2.63;2.10;;;;;;;16.71;75.19;100922.22;691614;28;46299;-69
2021/08/30 00:40:35;;;;;;;2.33;2.20;;;;;;;16.71;75.21;100916.78;690825;28;69254;-69
2021/08/30 00:40:56;;;;;;;2.42;2.17;;;;;;;16.70;75.27;100918.63;692005;28;22636;-69
2021/08/30 00:41:17;;;;;;;3.15;2.20;;;;;;;16.70;75.39;100918.63;692857;28;22380;-69
2021/08/30 00:41:39;;;;;;;3.42;2.20;;;;;;;16.71;75.24;100920.31;692932;28;22370;-69
2021/08/30 00:42:00;;;;;;;2.40;2.30;;;;;;;16.70;75.15;100913.19;691487;28;46542;-70
2021/08/30 00:42:21;;;;;;;2.40;2.20;;;;;;;16.70;75.13;100917.81;691890;28;23460;-69
2021/08/30 00:42:43;;;;;;;2.40;2.20;;;;;;;16.70;75.26;100907.72;692033;28;22399;-69
2021/08/30 00:43:04;;;;;;;2.00;1.90;;;;;;;16.69;75.24;100919.72;691135;28;69443;-69
2021/08/30 00:43:25;;;;;;;2.30;2.20;;;;;;;16.69;75.13;100910.66;692901;28;22404;-66
2021/08/30 00:43:46;;;;;;;3.60;2.47;;;;;;;16.67;75.12;100919.06;692949;28;21331;-69
2021/08/30 00:44:08;;;;;;;3.40;2.40;;;;;;;16.70;75.11;100917.81;693085;28;1903;-69
2021/08/30 00:44:29;;;;;;;3.65;2.38;;;;;;;16.71;74.95;100914.88;691759;28;44379;-70
2021/08/30 00:44:52;;;;;;;2.78;2.40;;;;;;;16.71;75.02;100914.03;692574;28;22394;-68
2021/08/30 00:45:15;;;;;;;3.33;2.40;;;;;;;16.70;75.09;100921.38;691063;28;69446;-69
2021/08/30 00:45:37;;;;;;;2.50;2.30;;;;;;;16.70;75.04;100921.38;690654;28;69690;-67
2021/08/30 00:45:59;;;;;;;2.60;2.40;;;;;;;16.68;75.10;100917.19;692853;28;21554;-68
2021/08/30 00:46:21;;;;;;;2.10;2.00;;;;;;;16.68;75.06;100909.84;691918;28;46319;-68
2021/08/30 00:46:42;;;;;;;2.13;2.03;;;;;;;16.70;75.02;100923.25;691854;28;45236;-69
2021/08/30 00:47:03;;;;;;;2.22;2.13;;;;;;;16.69;75.15;100918.84;692928;28;22360;-68
2021/08/30 00:47:24;;;;;;;2.40;2.20;;;;;;;16.70;75.07;100920.53;691399;28;46579;-68
2021/08/30 00:47:48;;;;;;;2.15;2.05;;;;;;;16.69;75.12;100916.97;692253;28;21319;-68
2021/08/30 00:48:09;;;;;;;2.20;2.10;;;;;;;16.69;75.08;100921.56;689916;28;69341;-68
2021/08/30 00:48:30;;;;;;;2.47;2.38;;;;;;;16.69;74.96;100921.56;692488;28;23476;-69
2021/08/30 00:48:51;;;;;;;2.40;2.30;;;;;;;16.68;75.02;100918.03;692749;28;23536;-69
2021/08/30 00:49:13;;;;;;;2.40;2.20;;;;;;;16.69;75.14;100921.56;691112;28;45271;-68
2021/08/30 00:49:34;;;;;;;2.53;2.33;;;;;;;16.69;74.99;100918.84;692067;28;46421;-69
2021/08/30 00:49:56;;;;;;;2.35;2.25;;;;;;;16.68;75.23;100922.66;692802;28;21547;-69
2021/08/30 00:50:17;;;;;;;2.40;2.30;;;;;;;16.65;75.01;100914.91;692743;28;21529;-67
2021/08/30 00:50:39;;;;;;;2.40;2.30;;;;;;;16.69;75.10;100922.44;692596;28;21555;-69
2021/08/30 00:51:00;;;;;;;2.40;2.30;;;;;;;16.67;75.07;100915.50;691458;28;46347;-69
2021/08/30 00:51:21;;;;;;;3.65;2.25;;;;;;;16.67;75.14;100913.59;692585;28;21559;-69
2021/08/30 00:51:42;;;;;;;3.33;2.22;;;;;;;16.67;75.09;100912.78;692639;28;22319;-69
2021/08/30 00:52:04;;;;;;;2.17;2.08;;;;;;;16.67;75.06;100916.34;692554;28;23419;-68
2021/08/30 00:52:51;;;;;;;1.95;1.85;;;;;;;16.68;75.08;100918.03;691700;28;46370;-69
2021/08/30 00:53:12;;;;;;;3.03;2.20;;;;;;;16.69;75.11;100924.31;688726;28;117810;-69
2021/08/30 00:53:33;;;;;;;2.85;2.22;;;;;;;16.68;75.01;100917.19;692560;28;22381;-68
2021/08/30 00:53:58;;;;;;;2.50;2.25;;;;;;;16.68;75.02;100925.38;692104;28;21551;-68
2021/08/30 00:54:21;;;;;;;2.40;2.30;;;;;;;16.68;75.03;100917.19;689413;28;113589;-67
2021/08/30 00:54:43;;;;;;;2.90;2.42;;;;;;;16.67;75.04;100919.06;691305;28;68324;-68
2021/08/30 00:55:05;;;;;;;3.25;2.70;;;;;;;16.69;75.00;100922.44;692295;28;22342;-68
2021/08/30 00:55:27;;;;;;;2.42;2.22;;;;;;;16.69;75.05;100918.84;689726;28;70306;-69
2021/08/30 00:55:49;;;;;;;2.85;2.55;;;;;;;16.69;74.91;100925.16;691208;28;21365;-69
2021/08/30 00:56:10;;;;;;;2.58;2.38;;;;;;;16.68;74.88;100920.75;689998;28;70249;-68
2021/08/30 00:56:31;;;;;;;2.30;2.20;;;;;;;16.69;75.01;100922.44;690265;28;46536;-67
2021/08/30 00:56:52;;;;;;;2.70;2.50;;;;;;;16.69;75.05;100916.13;691385;28;23499;-69
2021/08/30 00:57:14;;;;;;;2.60;2.40;;;;;;;16.69;75.09;100916.13;690916;28;22284;-68
2021/08/30 00:57:36;;;;;;;2.55;2.40;;;;;;;16.70;74.93;100920.53;691972;28;46429;-68
2021/08/30 00:57:58;;;;;;;2.38;2.17;;;;;;;16.68;75.10;100918.03;691139;28;46548;-69
2021/08/30 00:58:20;;;;;;;3.50;2.30;;;;;;;16.70;75.00;100920.53;692103;28;22514;-69
2021/08/30 00:58:41;;;;;;;2.30;2.20;;;;;;;16.70;74.87;100920.53;692425;28;17446;-69
2021/08/30 00:59:03;;;;;;;3.20;2.30;;;;;;;16.69;74.94;100905.22;690336;28;47326;-66
2021/08/30 00:59:24;;;;;;;3.00;2.45;;;;;;;16.68;74.92;100919.91;692154;28;22321;-69
2021/08/30 00:59:45;;;;;;;2.80;2.28;;;;;;;16.68;75.05;100903.56;691610;28;44550;-67
2021/08/30 01:00:08;;;;;;;3.00;2.30;;;;;;;16.68;74.90;100914.47;691675;28;21445;-68
2021/08/30 01:00:30;;;;;;;2.55;2.13;;;;;;;16.69;74.92;100916.13;690794;28;69402;-68
2021/08/30 01:00:51;;;;;;;2.25;2.10;;;;;;;16.68;74.96;100922.66;691637;28;23431;-70
2021/08/30 01:01:13;;;;;;;2.42;2.22;;;;;;;16.69;74.86;100908.81;691759;28;46521;-68
2021/08/30 01:01:35;;;;;;;2.53;2.33;;;;;;;16.69;74.85;100918.84;691986;28;44407;-69
2021/08/30 01:01:56;;;;;;;2.25;2.13;;;;;;;16.68;74.80;100917.19;692659;28;23454;-68
2021/08/30 01:02:17;;;;;;;2.70;2.20;;;;;;;16.68;74.78;100919.91;692303;28;21543;-69
2021/08/30 01:02:41;;;;;;;2.83;2.47;;;;;;;16.68;74.81;100915.28;691129;28;44397;-68
2021/08/30 01:03:04;;;;;;;2.70;2.47;;;;;;;16.67;74.84;100907.31;692317;28;15390;-69
2021/08/30 01:03:25;;;;;;;2.40;2.30;;;;;;;16.67;74.99;100919.06;691589;28;45232;-69
2021/08/30 01:03:48;;;;;;;2.30;2.20;;;;;;;16.68;74.98;100917.19;692261;28;23455;-69
2021/08/30 01:04:11;;;;;;;2.25;2.15;;;;;;;16.66;74.99;100917.41;689650;28;91938;-68
2021/08/30 01:04:32;;;;;;;2.40;2.22;;;;;;;16.67;74.91;100920.97;691036;28;69300;-69
2021/08/30 01:04:54;;;;;;;3.22;2.30;;;;;;;16.65;74.92;100920.34;692580;28;21718;-68
2021/08/30 01:05:16;;;;;;;3.05;2.28;;;;;;;16.66;74.95;100922.00;692820;28;20890;-69
2021/08/30 01:05:42;;;;;;;2.42;2.30;;;;;;;16.65;74.79;100923.06;691818;28;45438;-69
2021/08/30 01:06:09;;;;;;;2.65;2.17;;;;;;;16.64;74.78;100918.66;688295;28;136239;-68
2021/08/30 01:06:35;;;;;;;2.67;2.47;;;;;;;16.63;74.92;100917.84;688371;28;138854;-69
2021/08/30 01:07:00;;;;;;;3.03;2.45;;;;;;;16.62;74.96;100918.03;688549;28;137925;-69
2021/08/30 01:07:27;;;;;;;2.60;2.40;;;;;;;16.62;74.96;100920.78;689394;28;113576;-66
2021/08/30 01:07:58;;;;;;;2.83;2.63;;;;;;;16.60;74.94;100918.25;687066;28;136246;-68
2021/08/30 01:08:25;;;;;;;2.67;2.47;;;;;;;16.60;74.97;100915.53;688656;28;138057;-69
2021/08/30 01:08:50;;;;;;;2.75;2.55;;;;;;;16.57;75.21;100919.50;688554;28;138688;-69
2021/08/30 01:09:15;;;;;;;3.08;2.80;;;;;;;16.57;75.13;100922.22;688455;28;115961;-69
2021/08/30 01:09:41;;;;;;;2.70;2.50;;;;;;;16.57;75.20;100921.41;688908;28;115089;-69
2021/08/30 01:10:07;;;;;;;2.72;2.50;;;;;;;16.57;75.19;100919.50;688842;28;136441;-68
2021/08/30 01:10:32;;;;;;;3.63;2.80;;;;;;;16.54;75.22;100914.47;688230;28;138120;-69
2021/08/30 01:10:55;;;;;;;2.80;2.60;;;;;;;16.56;75.30;100920.56;688899;28;115233;-69
2021/08/30 01:11:19;;;;;;;2.90;2.70;;;;;;;16.57;75.03;100913.22;690886;28;69882;-68
2021/08/30 01:11:44;;;;;;;2.75;2.55;;;;;;;16.57;75.22;100916.78;690130;28;90170;-68
2021/08/30 01:12:08;;;;;;;2.90;2.70;;;;;;;16.56;75.38;100920.56;689049;28;115150;-69
2021/08/30 01:12:32;;;;;;;3.10;2.50;;;;;;;16.60;75.25;100915.53;691979;28;92310;-69
2021/08/30 01:12:58;;;;;;;3.27;2.70;;;;;;;16.60;75.28;100918.25;692738;28;92115;-69
2021/08/30 01:13:25;;;;;;;3.08;2.78;;;;;;;16.62;75.16;100918.03;691000;28;138183;-69
2021/08/30 01:13:50;;;;;;;3.08;2.88;;;;;;;16.62;75.24;100923.50;691116;28;139184;-68
2021/08/30 01:14:14;;;;;;;3.20;2.90;;;;;;;16.62;75.34;100918.03;691059;28;115435;-69
2021/08/30 01:14:42;;;;;;;2.60;2.40;;;;;;;16.61;75.33;100914.47;690379;28;92285;-69
2021/08/30 01:15:06;;;;;;;2.60;2.50;;;;;;;16.60;75.18;100915.53;688497;28;137729;-69
2021/08/30 01:15:31;;;;;;;2.70;2.60;;;;;;;16.61;75.18;100921.81;689592;28;92466;-69
2021/08/30 01:15:54;;;;;;;2.90;2.70;;;;;;;16.62;74.97;100918.03;688751;28;113609;-68
2021/08/30 01:16:15;;;;;;;2.90;2.70;;;;;;;16.62;74.99;100918.88;690651;28;69535;-68
2021/08/30 01:16:37;;;;;;;3.70;2.80;;;;;;;16.61;75.07;100922.63;691709;28;44345;-69
2021/08/30 01:16:58;;;;;;;4.00;2.75;;;;;;;16.61;75.05;100927.25;691499;28;47446;-68
2021/08/30 01:17:21;;;;;;;2.60;2.40;;;;;;;16.61;75.11;100927.25;692541;28;22396;-69
2021/08/30 01:17:43;;;;;;;2.70;2.50;;;;;;;16.61;75.03;100928.09;689846;28;67525;-68
2021/08/30 01:18:07;;;;;;;3.00;2.80;;;;;;;16.61;75.10;100922.63;692483;28;23479;-68
2021/08/30 01:18:30;;;;;;;3.03;2.83;;;;;;;16.62;75.10;100931.69;690102;28;93211;-67
2021/08/30 01:18:53;;;;;;;2.92;2.72;;;;;;;16.61;75.16;100919.91;689746;28;92203;-69
2021/08/30 01:19:18;;;;;;;2.92;2.72;;;;;;;16.62;75.06;100931.69;690235;28;69447;-69
2021/08/30 01:19:56;;;;;;;3.00;2.80;;;;;;;16.61;75.13;100922.63;692441;28;91887;-69
2021/08/30 01:20:25;;;;;;;2.95;2.75;;;;;;;16.64;75.09;100926.84;690261;28;137650;-69
2021/08/30 01:20:58;;;;;;;2.95;2.75;;;;;;;16.64;75.03;100929.56;690896;28;137967;-69
2021/08/30 01:21:22;;;;;;;3.50;3.00;;;;;;;16.63;74.90;100923.28;690979;28;135520;-68
2021/08/30 01:21:44;;;;;;;3.10;2.78;;;;;;;16.63;75.07;100923.28;690939;28;69292;-69
2021/08/30 01:22:08;;;;;;;2.90;2.70;;;;;;;16.63;74.99;100923.28;691138;28;67499;-66
2021/08/30 01:22:30;;;;;;;3.05;2.85;;;;;;;16.64;75.04;100927.66;690888;28;76557;-68
2021/08/30 01:22:53;;;;;;;3.10;2.88;;;;;;;16.62;74.98;100929.78;691824;28;46326;-69
2021/08/30 01:23:15;;;;;;;3.10;2.80;;;;;;;16.61;74.89;100927.25;693341;28;988;-68
2021/08/30 01:23:38;;;;;;;2.90;2.70;;;;;;;16.62;75.15;100923.50;691194;28;43769;-68
2021/08/30 01:24:03;;;;;;;3.15;2.95;;;;;;;16.62;74.95;100924.31;690609;28;68160;-69
2021/08/30 01:24:25;;;;;;;3.45;3.25;;;;;;;16.63;75.11;100930.59;686617;28;116022;-68
2021/08/30 01:24:48;;;;;;;3.30;3.10;;;;;;;16.62;74.96;100921.59;689091;28;45256;-68
2021/08/30 01:25:12;;;;;;;3.08;2.88;;;;;;;16.63;74.99;100928.75;687097;28;92246;-69
2021/08/30 01:25:34;;;;;;;3.78;3.20;;;;;;;16.63;75.04;100928.75;687874;28;69484;-69
2021/08/30 01:25:57;;;;;;;3.20;3.00;;;;;;;16.63;75.03;100931.47;690389;28;44397;-69
2021/08/30 01:26:20;;;;;;;2.95;2.75;;;;;;;16.62;74.96;100924.31;690303;28;92036;-69
2021/08/30 01:26:46;;;;;;;2.92;2.72;;;;;;;16.63;75.00;100919.69;691412;28;46405;-68
2021/08/30 01:27:08;;;;;;;3.20;3.00;;;;;;;16.63;75.04;100926.00;687798;28;161117;-68
2021/08/30 01:27:29;;;;;;;3.45;3.20;;;;;;;16.62;74.88;100918.03;692361;28;34747;-68
2021/08/30 01:27:52;;;;;;;3.25;3.05;;;;;;;16.62;74.81;100923.50;691528;28;19546;-68
2021/08/30 01:28:14;;;;;;;3.22;3.03;;;;;;;16.62;74.90;100924.31;690855;28;69446;-69
2021/08/30 01:28:38;;;;;;;3.35;3.10;;;;;;;16.60;74.84;100917.41;691839;28;45319;-69
2021/08/30 01:29:04;;;;;;;3.00;2.80;;;;;;;16.62;75.00;100920.78;689028;28;92264;-69
2021/08/30 01:29:29;;;;;;;3.15;2.95;;;;;;;16.61;74.86;100921.81;687567;28;158498;-70
2021/08/30 01:29:56;;;;;;;3.00;2.70;;;;;;;16.62;74.95;100915.31;689291;28;113617;-69
2021/08/30 01:30:19;;;;;;;3.33;2.95;;;;;;;16.61;74.98;100921.81;688164;28;137242;-69
2021/08/30 01:30:41;;;;;;;3.38;3.05;;;;;;;16.61;75.02;100919.91;690782;28;69397;-69
2021/08/30 01:31:07;;;;;;;3.78;2.83;;;;;;;16.59;74.98;100916.56;691144;28;44381;-69
2021/08/30 01:31:38;;;;;;;4.30;2.85;;;;;;;16.60;74.83;100922.84;688878;28;136502;-68
2021/08/30 01:32:03;;;;;;;3.00;2.80;;;;;;;16.60;74.91;100918.25;688596;28;136199;-68
2021/08/30 01:32:30;;;;;;;3.30;3.00;;;;;;;16.58;74.87;100918.47;689299;28;115314;-68
2021/08/30 01:32:53;;;;;;;3.20;3.00;;;;;;;16.60;75.00;100925.56;687351;28;160674;-69
2021/08/30 01:33:15;;;;;;;3.47;2.95;;;;;;;16.58;75.06;100923.91;691035;28;67515;-69
2021/08/30 01:33:36;;;;;;;4.07;2.58;;;;;;;16.56;75.17;100914.28;692786;28;21541;-69
2021/08/30 01:33:58;;;;;;;3.03;2.60;;;;;;;16.56;74.91;100917.00;691574;28;44383;-69
2021/08/30 01:34:20;;;;;;;3.00;2.80;;;;;;;16.56;75.12;100917.81;691609;28;46301;-68
2021/08/30 01:34:41;;;;;;;2.88;2.67;;;;;;;16.53;74.91;100912.78;691497;28;46300;-69
2021/08/30 01:35:07;;;;;;;3.22;2.97;;;;;;;16.56;74.98;100919.72;692779;28;22222;-69
2021/08/30 01:35:30;;;;;;;2.90;2.70;;;;;;;16.55;75.08;100918.88;687811;28;161063;-68
2021/08/30 01:35:51;;;;;;;3.30;3.00;;;;;;;16.52;74.98;100916.59;690737;28;69432;-69
2021/08/30 01:36:13;;;;;;;3.10;2.90;;;;;;;16.54;75.18;100922.66;691974;28;21309;-68
2021/08/30 01:36:36;;;;;;;3.10;2.90;;;;;;;16.55;75.13;100918.03;692498;28;22450;-69
2021/08/30 01:36:58;;;;;;;3.40;3.10;;;;;;;16.53;75.18;100920.97;690084;28;91963;-70
2021/08/30 01:37:19;;;;;;;3.00;2.80;;;;;;;16.53;75.15;100923.69;692787;28;22231;-68
2021/08/30 01:37:43;;;;;;;3.03;2.80;;;;;;;16.54;75.12;100922.66;690641;28;46454;-65
2021/08/30 01:38:07;;;;;;;3.30;2.88;;;;;;;16.53;75.15;100915.50;689988;28;92223;-67
2021/08/30 01:38:28;;;;;;;3.03;2.83;;;;;;;16.52;75.00;100918.47;691123;28;69414;-69
2021/08/30 01:38:50;;;;;;;3.08;2.88;;;;;;;16.52;75.27;100919.31;692127;28;21305;-69
2021/08/30 01:39:12;;;;;;;3.20;3.00;;;;;;;16.53;75.14;100923.69;691287;28;46437;-67
2021/08/30 01:39:34;;;;;;;3.42;3.20;;;;;;;16.53;75.00;100923.69;691180;28;67176;-69
2021/08/30 01:39:56;;;;;;;3.40;3.10;;;;;;;16.52;75.27;100927.50;692392;28;23482;-68
2021/08/30 01:40:20;;;;;;;3.05;2.85;;;;;;;16.53;75.24;100925.59;691117;28;45279;-68
2021/08/30 01:40:43;;;;;;;3.30;3.00;;;;;;;16.53;75.12;100929.16;690141;28;92259;-67
2021/08/30 01:41:04;;;;;;;3.42;3.13;;;;;;;16.51;75.25;100925.81;690200;28;68306;-69
2021/08/30 01:41:26;;;;;;;3.10;2.90;;;;;;;16.53;74.98;100926.41;691725;28;44611;-65
2021/08/30 01:41:48;;;;;;;3.33;3.03;;;;;;;16.51;74.95;100923.09;691887;28;46434;-69
2021/08/30 01:42:10;;;;;;;3.15;2.90;;;;;;;16.52;75.12;100926.63;692286;28;22378;-69
2021/08/30 01:42:32;;;;;;;3.30;3.10;;;;;;;16.53;75.02;100928.31;691095;28;69469;-69
2021/08/30 01:42:54;;;;;;;3.25;3.05;;;;;;;16.50;75.16;100926.84;692622;28;22416;-69
2021/08/30 01:43:15;;;;;;;3.47;3.28;;;;;;;16.52;75.16;100927.50;691538;28;46103;-68
2021/08/30 01:43:37;;;;;;;3.10;2.90;;;;;;;16.53;75.08;100931.06;692598;28;22402;-69
2021/08/30 01:43:59;;;;;;;3.25;3.05;;;;;;;16.54;75.12;100938.19;691300;28;40411;-69
2021/08/30 01:44:20;;;;;;;3.60;3.30;;;;;;;16.49;75.08;100927.91;690814;28;46362;-69
2021/08/30 01:44:42;;;;;;;3.72;3.40;;;;;;;16.51;75.04;100928.53;692519;28;21537;-69
2021/08/30 01:45:06;;;;;;;3.58;3.10;;;;;;;16.51;75.10;100928.53;691825;28;43937;-68
2021/08/30 01:45:29;;;;;;;3.28;3.08;;;;;;;16.50;75.08;100926.84;690259;28;92332;-69
2021/08/30 01:45:51;;;;;;;3.35;3.15;;;;;;;16.51;74.98;100931.25;690848;28;69421;-69